Fort Lowell, Arizona
Current Conditions -  °F | °C
As of 4:58 AM on Wednesday 22 Oct 2014 (Local Time) from KDMA Reporting Station
Clear Clear  
Wind Chill: 61°   Ceiling: Unl
Heat Index: 61°   Visibility: 10mi
Dew Point: 49°   Wind: 5mph
Humidity: 64%   Direction: 170°S
Pressure: 29.95"   Gusts: NA
Location:  32.3323°N, 110.678°W
Report Text: KDMA 221158Z AUTO 17004KT 10SM CLR 16/09 A2995 RMK AO2 SLP107 T01610094 10185 20156 53002 $
Loading
Personal Weather Stations






























Interactive Weather Map
Tropical Storm Tracking
New forecast layout! Learn more

10-Day Weather Forecast

Advertisements
Track Severe Weather on mobile